Etusivu
METAR-TAF:

METAR-TAF

Lentoasemat :

Menomonie Municipal Airport (Score Field)

Menomonie, Wisconsin, Yhdysvallat

Leveyspiiri: 44-53-32N, Pituuspiiri: 091-52-04W, korkeus merenpinnasta: 273 m

Tämänhetkinen sää

Tämä raportti tehtiin 19 minuuttia sitten, kello 16.35 UTC
tyyntä
Lämpötila -2°C
Kosteus 100%
Ilmanpaine 1008 hPa
Näkyvyys: 6.4 km
Pilvistä 600 ft:n korkeudessa
utua

METAR: KLUM 181635Z AUTO 00000KT 4SM BR OVC006 M02/M02 A2978 RMK AO2 T10231025

Aika: 10:54 (16:54 UTC)


TAF: puuttuu

Säähavainnot ja -ennusteet yli 4000 lentoasemalta (METAR- ja TAF-raportit).

Käytössä olevat sääasemat on merkitty karttaan keltaisilla ja punaisilla pisteillä.

Aseta hiiri pisteen päälle nähdäksesi sääaseman nimen.

Klikkaa sitten nähdäksesi säähavainnot ja -ennusteet.

Kartan vaihtaminen: klikkaa mustalla rastilla varustettuja vihreitä pisteitä, niin voit zoomata sisään; viivalla varustettua vihreää pistettä, niin voit zoomata ulos tai vihreitä nuolia, niin pääset viereisille kartoille.


METAR-TAF: